Time;durP1;ratioP1;P1;durP2;ratioP2;P2;SDS_P1;SDS_P2;PMS_P1;PMS_P2;Temp;Humidity;BMP_temperature;BMP_pressure;BME280_temperature;BME280_humidity;BME280_pressure;Samples;Min_cycle;Max_cycle;Signal;HPM_P1;HPM_P2
2020/12/31 00:00:54;;;;;;;12.90;5.70;;;;;;;9.71;74.62;98811.94;1719865;82;21490;-41
2020/12/31 00:03:22;;;;;;;12.80;6.50;;;;;;;9.78;74.58;98812.61;1716630;82;21653;-41
2020/12/31 00:05:50;;;;;;;15.83;6.72;;;;;;;9.85;74.46;98813.47;1767075;80;21175;-41
2020/12/31 00:08:18;;;;;;;13.40;7.70;;;;;;;9.86;74.42;98813.69;1756947;80;21187;-41
2020/12/31 00:10:47;;;;;;;13.48;7.35;;;;;;;9.91;74.36;98815.29;1729680;82;21548;-41
2020/12/31 00:13:16;;;;;;;14.65;6.20;;;;;;;9.91;74.27;98818.78;1711171;82;21192;-41
2020/12/31 00:15:44;;;;;;;11.87;6.63;;;;;;;9.94;74.18;98813.97;1789151;79;21550;-41
2020/12/31 00:18:25;;;;;;;14.78;6.87;;;;;;;10.03;73.99;98813.11;1796486;79;21032;-40
2020/12/31 00:21:15;;;;;;;16.15;7.28;;;;;;;10.06;73.93;98813.53;1795785;79;21468;-40
2020/12/31 00:24:04;;;;;;;15.13;8.05;;;;;;;10.07;74.09;98813.75;1817392;77;22330;-42
2020/12/31 00:26:32;;;;;;;15.80;6.72;;;;;;;9.99;74.19;98812.87;1809653;78;21020;-42
2020/12/31 00:29:01;;;;;;;13.75;6.80;;;;;;;9.98;74.19;98806.66;1785780;78;21358;-42
2020/12/31 00:31:29;;;;;;;16.87;7.42;;;;;;;10.07;74.16;98808.33;1788455;79;21016;-42
2020/12/31 00:33:57;;;;;;;15.13;7.45;;;;;;;10.10;74.14;98804.30;1795073;79;20982;-42
2020/12/31 00:36:26;;;;;;;21.05;7.65;;;;;;;10.09;74.19;98808.73;1748454;80;22049;-42
2020/12/31 00:38:54;;;;;;;14.73;7.95;;;;;;;10.09;74.32;98808.16;1769926;80;21040;-42
2020/12/31 00:41:22;;;;;;;15.65;7.03;;;;;;;10.07;74.44;98809.69;1755801;80;21388;-42
2020/12/31 00:43:51;;;;;;;13.15;6.55;;;;;;;10.11;74.46;98806.44;1715613;82;21028;-42
2020/12/31 00:46:20;;;;;;;21.23;8.13;;;;;;;10.18;74.36;98802.47;1735405;81;20993;-42
2020/12/31 00:48:48;;;;;;;21.80;8.35;;;;;;;10.22;74.34;98807.35;1730137;82;21145;-42
2020/12/31 00:51:16;;;;;;;18.05;7.83;;;;;;;10.21;74.41;98809.88;1733432;80;21147;-42
2020/12/31 00:53:45;;;;;;;16.73;7.15;;;;;;;10.18;74.49;98800.55;1759378;80;21291;-42
2020/12/31 00:56:15;;;;;;;20.90;8.33;;;;;;;10.18;74.53;98802.47;1761465;80;21139;-42
2020/12/31 00:58:43;;;;;;;19.12;8.30;;;;;;;10.21;74.52;98800.40;1777264;80;21143;-42
2020/12/31 01:01:12;;;;;;;24.75;8.43;;;;;;;10.22;74.53;98810.06;1752584;80;21175;-42
2020/12/31 01:03:41;;;;;;;26.25;9.25;;;;;;;10.16;74.79;98805.58;1745944;80;21151;-39
2020/12/31 01:06:09;;;;;;;19.60;7.50;;;;;;;10.09;74.99;98807.38;1742705;82;22157;-42
2020/12/31 01:08:38;;;;;;;17.85;7.55;;;;;;;10.04;75.22;98795.72;1758517;79;22047;-42
2020/12/31 01:11:06;;;;;;;20.72;8.43;;;;;;;10.08;75.23;98802.53;1732951;82;21154;-41
2020/12/31 01:13:34;;;;;;;21.55;8.00;;;;;;;10.12;75.19;98809.36;1750711;80;21047;-42
2020/12/31 01:16:03;;;;;;;17.20;7.70;;;;;;;10.06;75.32;98808.12;1762416;80;21146;-42
2020/12/31 01:18:31;;;;;;;16.42;8.28;;;;;;;10.03;75.44;98804.98;1769699;80;21621;-41
2020/12/31 01:21:00;;;;;;;23.52;8.33;;;;;;;10.01;75.50;98800.53;1745600;82;21102;-42
2020/12/31 01:23:31;;;;;;;13.83;7.55;;;;;;;10.02;75.55;98801.31;1739140;80;21178;-39
2020/12/31 01:25:59;;;;;;;20.50;8.00;;;;;;;10.07;75.45;98802.92;1789045;78;21139;-42
2020/12/31 01:28:27;;;;;;;20.15;8.60;;;;;;;10.09;75.39;98801.38;1809729;79;21856;-42
2020/12/31 01:30:56;;;;;;;16.77;8.43;;;;;;;10.06;75.44;98801.34;1786195;79;21298;-42
2020/12/31 01:33:24;;;;;;;20.60;8.13;;;;;;;9.60;75.55;98737.36;1777421;78;21205;-42
2020/12/31 01:35:53;;;;;;;19.20;7.50;;;;;;;10.01;75.64;98797.83;1780111;80;21161;-41
2020/12/31 01:38:22;;;;;;;18.27;7.95;;;;;;;10.06;75.58;98795.94;1780200;78;21436;-42
2020/12/31 01:40:52;;;;;;;19.30;8.73;;;;;;;10.06;75.63;98799.42;1766172;80;21131;-41
2020/12/31 01:43:20;;;;;;;20.75;8.95;;;;;;;9.95;75.76;98791.73;1708339;81;21399;-41
2020/12/31 01:45:48;;;;;;;21.20;8.58;;;;;;;9.97;75.84;98798.33;1783505;79;21147;-41
2020/12/31 01:48:17;;;;;;;21.10;8.50;;;;;;;9.96;75.87;98796.80;1749871;79;21135;-41
2020/12/31 01:50:49;;;;;;;21.57;8.55;;;;;;;9.97;75.89;98798.33;1769658;78;21444;-42
2020/12/31 01:53:17;;;;;;;21.00;9.58;;;;;;;9.94;75.91;98797.72;1810470;79;21099;-41
2020/12/31 01:55:45;;;;;;;23.60;10.05;;;;;;;9.87;76.17;98800.94;1808497;79;21332;-41
2020/12/31 01:58:13;;;;;;;22.60;8.50;;;;;;;9.80;76.32;98807.02;1773584;79;21043;-41
2020/12/31 02:00:42;;;;;;;20.50;9.25;;;;;;;9.77;76.46;98796.94;1781506;78;21376;-41
2020/12/31 02:03:10;;;;;;;21.25;9.25;;;;;;;9.81;76.44;98794.27;1793764;78;21859;-42
2020/12/31 02:05:39;;;;;;;19.45;9.18;;;;;;;9.80;76.45;98791.36;1793198;79;21150;-41
2020/12/31 02:08:07;;;;;;;19.90;9.80;;;;;;;9.77;76.57;98788.82;1790842;78;21146;-41
2020/12/31 02:10:36;;;;;;;18.12;8.33;;;;;;;9.77;76.54;98792.10;1796012;79;21194;-42
2020/12/31 02:13:04;;;;;;;18.95;9.55;;;;;;;9.82;76.49;98785.01;1792121;79;21177;-42
2020/12/31 02:15:33;;;;;;;20.35;9.40;;;;;;;9.85;76.40;98780.20;1788130;79;21573;-42
2020/12/31 02:18:01;;;;;;;21.45;9.30;;;;;;;9.87;76.31;98782.77;1781911;78;21146;-42
2020/12/31 02:20:29;;;;;;;17.45;10.80;;;;;;;9.85;76.26;98774.22;1789264;78;21352;-42
2020/12/31 02:22:58;;;;;;;20.48;8.78;;;;;;;9.83;76.32;98775.72;1782361;79;21214;-42
2020/12/31 02:25:26;;;;;;;22.48;9.15;;;;;;;9.82;76.37;98777.67;1773952;79;21170;-42
2020/12/31 02:27:54;;;;;;;19.12;8.98;;;;;;;9.88;76.12;98774.82;1784059;79;21044;-42
2020/12/31 02:30:23;;;;;;;20.45;9.30;;;;;;;9.89;76.01;98772.33;1714634;82;21134;-42
2020/12/31 02:32:51;;;;;;;21.12;9.80;;;;;;;9.88;76.00;98773.47;1745415;80;21372;-42
2020/12/31 02:35:19;;;;;;;20.60;9.35;;;;;;;9.84;76.08;98787.54;1735672;80;20998;-42
2020/12/31 02:37:47;;;;;;;20.85;9.33;;;;;;;9.84;75.99;98776.71;1752305;81;21116;-42
2020/12/31 02:40:16;;;;;;;15.48;8.95;;;;;;;9.87;75.84;98778.70;1753371;81;21185;-42
2020/12/31 02:42:44;;;;;;;17.62;8.98;;;;;;;9.70;75.89;98744.05;1702815;80;21184;-42
2020/12/31 02:45:12;;;;;;;16.40;9.50;;;;;;;9.87;75.90;98772.50;1716717;82;21371;-42
2020/12/31 02:47:42;;;;;;;18.05;8.68;;;;;;;9.87;75.77;98762.45;1737085;82;21585;-42
2020/12/31 02:50:10;;;;;;;18.20;8.05;;;;;;;9.90;75.58;98769.05;1736886;81;21190;-42
2020/12/31 02:52:38;;;;;;;16.93;8.43;;;;;;;9.94;75.37;98767.16;1753041;80;21188;-43
2020/12/31 02:55:07;;;;;;;19.15;8.50;;;;;;;9.91;75.32;98757.86;1771064;80;21526;-43
2020/12/31 02:57:36;;;;;;;16.23;8.35;;;;;;;9.87;75.31;98767.88;1765396;80;21351;-43
2020/12/31 03:00:05;;;;;;;15.23;7.65;;;;;;;9.83;75.35;98764.31;1756951;81;21590;-43
2020/12/31 03:02:33;;;;;;;14.13;6.95;;;;;;;9.84;75.31;98771.30;1738694;80;21017;-43
2020/12/31 03:05:02;;;;;;;17.52;7.42;;;;;;;9.89;75.01;98770.97;1748709;80;21146;-43
2020/12/31 03:07:30;;;;;;;13.13;7.12;;;;;;;9.87;74.93;98761.11;1733012;81;21167;-43
2020/12/31 03:10:01;;;;;;;15.15;7.10;;;;;;;9.78;74.95;98761.94;1719553;81;21202;-43
2020/12/31 03:12:29;;;;;;;14.50;6.60;;;;;;;9.70;75.17;98767.06;1732626;81;21163;-43
2020/12/31 03:14:58;;;;;;;15.58;6.53;;;;;;;9.71;75.30;98757.80;1724974;81;21064;-43
2020/12/31 03:17:26;;;;;;;12.18;6.47;;;;;;;9.77;75.26;98757.69;1735322;81;21174;-43
2020/12/31 03:19:54;;;;;;;15.43;6.90;;;;;;;9.77;75.26;98750.14;1734637;80;21178;-43
2020/12/31 03:22:23;;;;;;;10.60;6.00;;;;;;;9.75;75.40;98753.20;1742754;81;21426;-43
2020/12/31 03:24:51;;;;;;;13.05;7.10;;;;;;;9.69;75.70;98754.67;1742997;81;21147;-43
2020/12/31 03:27:20;;;;;;;10.98;6.53;;;;;;;9.71;75.92;98746.97;1801281;78;21158;-43
2020/12/31 03:29:48;;;;;;;15.20;6.95;;;;;;;9.67;75.98;98725.08;1783083;80;21088;-43
2020/12/31 03:32:17;;;;;;;15.28;6.90;;;;;;;9.70;76.32;98733.23;1793719;78;21161;-43
2020/12/31 03:34:46;;;;;;;13.20;6.85;;;;;;;9.65;76.55;98736.26;1807557;78;21510;-42
2020/12/31 03:37:15;;;;;;;17.30;6.35;;;;;;;9.64;76.61;98736.62;1744641;80;21213;-43
2020/12/31 03:39:43;;;;;;;13.43;6.08;;;;;;;9.67;76.67;98742.09;1800044;79;21163;-43
2020/12/31 03:42:11;;;;;;;12.80;6.92;;;;;;;9.73;76.60;98735.19;1805664;79;21130;-43
2020/12/31 03:44:40;;;;;;;11.73;6.55;;;;;;;9.74;76.64;98735.40;1747532;80;21098;-43
2020/12/31 03:47:08;;;;;;;11.97;6.42;;;;;;;9.72;76.72;98743.13;1784229;78;21421;-43
2020/12/31 03:49:36;;;;;;;11.25;6.50;;;;;;;9.70;76.79;98740.00;1786784;78;21914;-42
2020/12/31 03:52:05;;;;;;;11.70;6.40;;;;;;;9.41;76.70;98694.22;1800030;78;21028;-43
2020/12/31 03:54:33;;;;;;;9.58;6.33;;;;;;;9.78;76.61;98742.98;1741665;82;21187;-43
2020/12/31 03:57:02;;;;;;;13.93;6.72;;;;;;;9.81;76.53;98739.56;1748600;80;21166;-42
2020/12/31 03:59:30;;;;;;;11.45;7.40;;;;;;;9.42;76.60;98693.08;1786302;79;21268;-43
2020/12/31 04:01:58;;;;;;;10.98;6.25;;;;;;;9.69;76.81;98743.84;1804564;78;21047;-43
2020/12/31 04:04:27;;;;;;;11.95;6.10;;;;;;;9.70;76.80;98746.77;1734555;80;21193;-43
2020/12/31 04:06:55;;;;;;;11.43;6.33;;;;;;;9.72;76.72;98742.34;1796802;79;21123;-43
2020/12/31 04:09:24;;;;;;;10.00;6.53;;;;;;;9.69;76.82;98735.73;1800393;78;21178;-43
2020/12/31 04:11:52;;;;;;;12.10;7.10;;;;;;;9.63;76.95;98735.08;1807881;78;21194;-43
2020/12/31 04:14:20;;;;;;;11.35;6.75;;;;;;;9.55;77.13;98734.20;1794962;78;21613;-43
2020/12/31 04:16:48;;;;;;;10.23;6.58;;;;;;;9.50;77.28;98737.22;1808922;78;21151;-41
2020/12/31 04:19:17;;;;;;;9.30;6.05;;;;;;;9.52;77.27;98741.14;1745649;80;21043;-42
2020/12/31 04:21:45;;;;;;;8.80;6.47;;;;;;;9.49;77.34;98739.14;1789674;78;21590;-40
2020/12/31 04:24:14;;;;;;;12.33;6.30;;;;;;;9.47;77.46;98748.22;1789777;78;21586;-42
2020/12/31 04:26:51;;;;;;;7.45;5.67;;;;;;;9.45;77.48;98749.15;1751075;80;21167;-41
2020/12/31 04:29:19;;;;;;;14.07;7.05;;;;;;;9.41;77.51;98750.25;1784760;78;21094;-42
2020/12/31 04:31:47;;;;;;;11.30;7.15;;;;;;;9.44;77.40;98754.34;1813446;78;21121;-42
2020/12/31 04:34:16;;;;;;;11.25;6.90;;;;;;;9.43;77.41;98761.50;1810705;78;21183;-41
2020/12/31 04:36:44;;;;;;;10.98;7.03;;;;;;;9.36;77.56;98765.44;1793954;79;21210;-41
2020/12/31 04:39:13;;;;;;;10.75;6.42;;;;;;;9.31;77.70;98771.16;1806118;79;21138;-42
2020/12/31 04:41:44;;;;;;;9.95;6.70;;;;;;;9.30;77.76;98768.25;1809558;78;21106;-42
2020/12/31 04:44:15;;;;;;;11.40;7.90;;;;;;;9.36;77.66;98776.26;1815336;79;21957;-41
2020/12/31 04:46:49;;;;;;;12.45;7.87;;;;;;;9.34;77.64;98775.86;1798172;78;21314;-41
2020/12/31 04:49:31;;;;;;;11.85;7.25;;;;;;;9.29;77.71;98785.08;1742178;80;21210;-41
2020/12/31 04:51:59;;;;;;;11.85;6.95;;;;;;;9.28;77.73;98784.08;1786898;79;21427;-43
2020/12/31 04:54:28;;;;;;;11.12;7.42;;;;;;;9.28;77.71;98785.42;1781775;78;21193;-43
2020/12/31 04:56:57;;;;;;;12.10;7.87;;;;;;;9.30;77.76;98775.80;1787604;78;21153;-43
2020/12/31 04:59:25;;;;;;;12.50;7.83;;;;;;;9.35;77.73;98775.48;1783892;79;21162;-43
2020/12/31 05:01:53;;;;;;;10.68;7.22;;;;;;;9.36;77.47;98781.67;1783891;79;23595;-42
2020/12/31 05:04:23;;;;;;;13.22;8.18;;;;;;;9.38;77.38;98792.35;1787869;79;21115;-42
2020/12/31 05:06:54;;;;;;;14.43;7.65;;;;;;;9.42;77.18;98789.69;1745419;82;21154;-43
2020/12/31 05:09:22;;;;;;;13.88;7.70;;;;;;;9.40;77.07;98800.08;1739790;80;21036;-43
2020/12/31 05:11:53;;;;;;;;;;;;;;;9.36;77.17;98803.31;1777720;80;21164;-43
2020/12/31 05:14:36;;;;;;;11.28;7.47;;;;;;;9.37;77.04;98804.31;1760924;80;22645;-42
2020/12/31 05:17:18;;;;;;;10.75;7.70;;;;;;;9.35;76.96;98812.00;1737497;82;21151;-43
2020/12/31 05:19:46;;;;;;;10.85;7.78;;;;;;;9.34;76.77;98811.81;1763128;80;21155;-43
2020/12/31 05:22:18;;;;;;;15.72;9.13;;;;;;;9.28;76.85;98815.18;1792546;78;21147;-43
2020/12/31 05:24:51;;;;;;;11.30;7.60;;;;;;;9.22;76.88;98812.56;1783495;78;21748;-43
2020/12/31 05:27:30;;;;;;;12.55;7.95;;;;;;;9.21;76.87;98815.06;1771067;79;21424;-43
2020/12/31 05:30:08;;;;;;;12.87;8.40;;;;;;;9.23;76.67;98817.63;1771020;79;21127;-43
2020/12/31 05:32:40;;;;;;;13.90;8.65;;;;;;;9.24;76.61;98822.47;1769244;80;21417;-43
2020/12/31 05:35:18;;;;;;;15.40;8.58;;;;;;;9.23;76.52;98834.42;1773416;79;21573;-43
2020/12/31 05:37:47;;;;;;;14.43;8.50;;;;;;;9.21;76.34;98820.47;1761008;80;21111;-42
2020/12/31 05:40:16;;;;;;;12.95;8.55;;;;;;;9.18;76.28;98817.15;1757819;80;21271;-43
2020/12/31 05:42:45;;;;;;;15.78;8.45;;;;;;;9.21;76.10;98821.82;1773121;80;21308;-42
2020/12/31 05:45:17;;;;;;;14.15;9.25;;;;;;;9.23;75.93;98831.72;1769825;78;21561;-43
2020/12/31 05:47:50;;;;;;;20.32;9.73;;;;;;;9.20;75.90;98833.80;1755812;79;21174;-43
2020/12/31 05:50:22;;;;;;;15.30;9.15;;;;;;;9.15;75.89;98838.35;1759344;78;21594;-43
2020/12/31 05:52:52;;;;;;;13.05;9.33;;;;;;;9.13;75.98;98846.06;1713352;81;21206;-43
2020/12/31 05:55:23;;;;;;;13.27;9.27;;;;;;;9.23;75.93;98845.23;1773249;78;21115;-43
2020/12/31 05:57:55;;;;;;;15.45;9.78;;;;;;;9.23;75.93;98845.23;1738574;80;21163;-43
2020/12/31 06:00:29;;;;;;;16.75;10.68;;;;;;;9.22;75.82;98847.73;1767730;78;21143;-43
2020/12/31 06:03:01;;;;;;;16.75;9.25;;;;;;;9.17;75.69;98851.52;1770215;80;21089;-42
2020/12/31 06:05:29;;;;;;;15.28;9.50;;;;;;;9.12;75.75;98848.55;1768420;79;21485;-43
2020/12/31 06:07:59;;;;;;;15.48;10.35;;;;;;;9.16;75.61;98856.72;1775221;79;21123;-43
2020/12/31 06:10:31;;;;;;;18.60;11.00;;;;;;;9.12;75.62;98858.02;1765707;79;21159;-43
2020/12/31 06:13:01;;;;;;;20.02;10.40;;;;;;;9.08;75.77;98856.40;1769242;79;21139;-43
2020/12/31 06:15:39;;;;;;;;;;;;;;;9.05;75.86;98847.07;1715873;83;21119;-43
2020/12/31 06:18:08;;;;;;;16.97;9.88;;;;;;;9.10;75.91;98852.77;1686191;82;22271;-43
2020/12/31 06:20:39;;;;;;;17.25;10.40;;;;;;;9.12;75.79;98854.53;1713510;82;21170;-43
2020/12/31 06:25:51;;;;;;;17.90;10.82;;;;;;;9.22;75.75;98845.03;1863551;76;22696;-42
2020/12/31 06:28:22;;;;;;;15.85;10.85;;;;;;;9.23;75.37;98847.95;1842039;76;21545;-42
2020/12/31 06:30:51;;;;;;;18.95;10.95;;;;;;;9.24;75.25;98850.30;1853745;76;21375;-42
2020/12/31 06:33:37;;;;;;;16.80;10.75;;;;;;;9.31;75.12;98852.31;1850133;77;21071;-42
2020/12/31 06:36:06;;;;;;;17.98;10.18;;;;;;;9.33;74.92;98852.74;1835990;77;21011;-42
2020/12/31 06:38:38;;;;;;;19.80;10.70;;;;;;;9.32;74.83;98852.53;1862824;77;21007;-42
2020/12/31 06:41:38;;;;;;;19.95;11.18;;;;;;;9.31;74.75;98860.42;1862953;77;20975;-42
2020/12/31 06:44:16;;;;;;;15.80;10.48;;;;;;;9.25;74.74;98850.48;1861857;77;21255;-42
2020/12/31 06:46:48;;;;;;;18.42;11.40;;;;;;;9.23;74.84;98852.00;1832581;77;21106;-42
2020/12/31 06:49:18;;;;;;;21.65;11.25;;;;;;;9.25;74.77;98854.54;1844686;77;21023;-42
2020/12/31 06:51:46;;;;;;;19.02;11.25;;;;;;;9.23;74.90;98854.14;1823650;77;21132;-42
2020/12/31 06:54:30;;;;;;;18.12;10.80;;;;;;;9.24;74.84;98856.27;1775070;80;21127;-42
2020/12/31 06:56:58;;;;;;;21.37;10.65;;;;;;;9.20;74.89;98850.79;1800940;78;21334;-42
2020/12/31 06:59:34;;;;;;;17.00;10.63;;;;;;;9.18;74.96;98859.06;1781387;80;21171;-42
2020/12/31 07:02:14;;;;;;;19.92;11.68;;;;;;;9.24;74.81;98856.27;1761303;80;21169;-42
2020/12/31 07:04:42;;;;;;;21.85;11.80;;;;;;;9.23;74.76;98868.23;1762043;80;21186;-42
2020/12/31 07:07:27;;;;;;;22.20;11.38;;;;;;;9.20;74.77;98867.61;1800510;79;21092;-42
2020/12/31 07:09:59;;;;;;;18.70;10.45;;;;;;;9.16;74.87;98872.37;1778299;80;21427;-42
2020/12/31 07:12:45;;;;;;;16.37;9.70;;;;;;;9.21;74.80;98875.91;1777029;80;21202;-42
2020/12/31 07:15:15;;;;;;;18.10;11.25;;;;;;;9.25;74.64;98879.45;1770088;79;22415;-42
2020/12/31 07:17:48;;;;;;;21.68;11.88;;;;;;;9.23;74.64;98881.75;1786045;79;21631;-42
2020/12/31 07:20:19;;;;;;;19.80;11.25;;;;;;;9.22;74.67;98877.48;1782835;79;21918;-42
2020/12/31 07:22:48;;;;;;;18.07;10.10;;;;;;;9.20;74.66;98884.59;1749805;81;21365;-42
2020/12/31 07:25:17;;;;;;;16.27;10.45;;;;;;;9.21;74.60;98881.32;1742541;81;22179;-42
2020/12/31 07:30:25;;;;;;;20.97;10.45;;;;;;;9.37;74.48;98876.57;1859684;76;22792;-42
2020/12/31 07:33:06;;;;;;;19.32;11.25;;;;;;;9.37;74.52;98878.70;1816336;77;21549;-42
2020/12/31 07:35:49;;;;;;;19.95;11.65;;;;;;;9.41;74.34;98889.01;1837058;77;21356;-43
2020/12/31 07:38:16;;;;;;;19.55;11.57;;;;;;;9.39;74.25;98891.88;1821691;77;21035;-42
2020/12/31 07:40:53;;;;;;;16.82;11.10;;;;;;;9.39;74.20;98895.34;1849703;77;21018;-42
2020/12/31 07:43:27;;;;;;;20.17;11.53;;;;;;;9.41;74.15;98889.58;1827082;77;21051;-42
2020/12/31 07:46:01;;;;;;;17.27;11.33;;;;;;;9.42;74.17;98889.79;1844318;76;21016;-42
2020/12/31 07:50:11;;;;;;;21.10;12.27;;;;;;;9.47;74.01;98892.19;1752019;79;27960;-42
2020/12/31 07:52:41;;;;;;;18.05;11.65;;;;;;;9.61;73.64;98892.41;1687421;82;28193;-42
2020/12/31 07:55:09;;;;;;;19.73;11.65;;;;;;;10.03;72.51;98894.92;1740172;82;21326;-42
2020/12/31 07:57:39;;;;;;;17.82;11.48;;;;;;;10.19;71.68;98894.21;1718519;83;21040;-42
2020/12/31 08:00:09;;;;;;;;;;;;;;;9.98;71.83;98897.38;1750271;82;21004;-42
2020/12/31 08:02:51;;;;;;;19.57;11.03;;;;;;;9.82;72.17;98895.44;1747625;81;20499;-42
2020/12/31 08:05:22;;;;;;;16.52;9.83;;;;;;;9.62;72.79;98895.33;1713249;82;22152;-42
2020/12/31 08:07:56;;;;;;;;;;;;;;;9.60;72.94;98903.02;1730197;82;21206;-42
2020/12/31 08:10:26;;;;;;;22.75;11.30;;;;;;;9.61;73.04;98903.23;1718375;82;20175;-42
2020/12/31 08:12:59;;;;;;;19.23;11.30;;;;;;;9.51;73.39;98898.44;1722181;82;21155;-42
2020/12/31 08:15:28;;;;;;;15.72;11.53;;;;;;;9.51;73.47;98895.73;1730765;82;21128;-42
2020/12/31 08:18:02;;;;;;;18.75;11.48;;;;;;;9.53;73.47;98893.45;1729375;82;21161;-42
2020/12/31 08:20:37;;;;;;;20.45;10.93;;;;;;;9.57;73.36;98896.98;1685079;85;21393;-42
2020/12/31 08:23:05;;;;;;;18.30;10.93;;;;;;;9.59;73.22;98891.41;1676030;83;21232;-42
2020/12/31 08:25:38;;;;;;;18.77;11.90;;;;;;;9.60;73.24;98885.42;1686383;85;21946;-42
2020/12/31 08:28:07;;;;;;;21.87;12.55;;;;;;;9.57;73.32;98886.16;1686242;85;21711;-42
2020/12/31 08:30:37;;;;;;;22.10;12.73;;;;;;;9.58;73.37;98879.61;1685938;85;21625;-42
2020/12/31 08:33:08;;;;;;;19.07;11.35;;;;;;;9.58;73.37;98883.67;1701241;83;21680;-42
2020/12/31 08:35:46;;;;;;;13.22;8.33;;;;;;;9.60;73.23;98888.91;1690992;83;21059;-42
2020/12/31 08:38:23;;;;;;;22.90;11.35;;;;;;;9.66;73.19;98889.39;1707412;84;21194;-42
2020/12/31 08:40:58;;;;;;;19.17;11.15;;;;;;;9.68;73.05;98895.80;1693633;84;21203;-42
2020/12/31 08:43:37;;;;;;;22.73;12.10;;;;;;;9.68;73.01;98890.39;1703171;84;22096;-42
2020/12/31 08:46:20;;;;;;;21.23;12.10;;;;;;;9.60;72.88;98892.19;1709803;83;21458;-42
2020/12/31 08:48:54;;;;;;;23.38;12.73;;;;;;;9.51;73.03;98887.04;1654507;85;21598;-42
2020/12/31 08:51:22;;;;;;;20.02;11.57;;;;;;;9.48;73.13;98885.64;1720431;81;21784;-42
2020/12/31 08:53:55;;;;;;;18.48;11.85;;;;;;;9.52;73.06;98890.53;1723124;82;21147;-42
2020/12/31 08:56:30;;;;;;;17.92;11.90;;;;;;;9.50;73.09;98887.39;1733056;82;21142;-42
2020/12/31 08:59:11;;;;;;;19.70;12.45;;;;;;;9.49;73.17;98889.89;1729426;82;21204;-42
2020/12/31 09:01:42;;;;;;;19.65;11.85;;;;;;;9.45;72.94;98892.55;1720991;82;21186;-42
2020/12/31 09:04:19;;;;;;;16.30;10.95;;;;;;;9.40;73.11;98888.79;1736957;82;21060;-41
2020/12/31 09:06:52;;;;;;;17.65;11.33;;;;;;;9.40;73.04;98898.83;1713954;82;21586;-41
2020/12/31 09:09:28;;;;;;;20.23;11.33;;;;;;;9.39;72.70;98888.58;1710712;82;21021;-42
2020/12/31 09:12:01;;;;;;;20.05;11.45;;;;;;;9.34;72.70;98889.48;1708731;82;22140;-41
2020/12/31 09:14:32;;;;;;;21.82;11.75;;;;;;;9.26;73.09;98894.55;1716069;82;20965;-41
2020/12/31 09:17:00;;;;;;;17.12;10.03;;;;;;;9.18;73.24;98894.22;1737863;82;20993;-41
2020/12/31 09:19:28;;;;;;;15.88;9.65;;;;;;;9.16;73.35;98888.60;1726786;82;21155;-42
2020/12/31 09:21:57;;;;;;;16.70;9.28;;;;;;;9.20;72.98;98890.00;1736062;82;21119;-41
2020/12/31 09:24:26;;;;;;;15.32;10.28;;;;;;;9.20;72.96;98887.89;1713930;82;21520;-40
2020/12/31 09:26:58;;;;;;;;;;;;;;;9.13;73.03;98890.69;1728145;82;21108;-41
2020/12/31 09:29:28;;;;;;;17.15;9.93;;;;;;;9.07;73.32;98890.77;1715053;82;20263;-41
2020/12/31 09:31:56;;;;;;;17.27;10.45;;;;;;;8.95;73.80;98897.72;1730729;82;21179;-41
2020/12/31 09:34:25;;;;;;;17.67;9.90;;;;;;;9.00;73.94;98893.36;1716517;82;21170;-41
2020/12/31 09:37:01;;;;;;;12.30;8.98;;;;;;;9.07;73.94;98886.71;1724047;82;21287;-41
2020/12/31 09:39:33;;;;;;;16.32;9.95;;;;;;;9.11;73.84;98886.19;1737887;82;21152;-41
2020/12/31 09:42:02;;;;;;;19.90;10.65;;;;;;;9.10;73.66;98884.62;1732713;82;21103;-41
2020/12/31 09:44:31;;;;;;;18.55;10.40;;;;;;;9.04;73.64;98884.73;1709291;82;21017;-41
2020/12/31 09:47:02;;;;;;;13.70;9.60;;;;;;;9.02;73.79;98880.25;1717773;82;21578;-41
2020/12/31 09:49:31;;;;;;;15.20;10.03;;;;;;;9.06;73.94;98876.25;1714800;82;21171;-41
2020/12/31 09:52:00;;;;;;;15.60;10.15;;;;;;;9.01;73.90;98873.27;1719007;82;21154;-41
2020/12/31 09:54:28;;;;;;;15.95;10.63;;;;;;;8.94;74.15;98873.17;1742726;82;21613;-40
2020/12/31 09:56:56;;;;;;;20.55;10.43;;;;;;;8.88;74.44;98863.78;1723329;82;21170;-40
2020/12/31 09:59:25;;;;;;;17.55;9.60;;;;;;;8.91;74.53;98878.48;1748327;81;21163;-42
2020/12/31 10:01:53;;;;;;;15.05;9.08;;;;;;;8.95;74.48;98865.27;1676161;85;21488;-41
2020/12/31 10:07:06;;;;;;;16.23;9.90;;;;;;;9.02;74.37;98850.51;1830489;78;22694;-39
2020/12/31 10:09:34;;;;;;;16.32;9.45;;;;;;;8.99;74.38;98857.22;1737645;82;21068;-38
2020/12/31 10:12:03;;;;;;;12.00;8.85;;;;;;;8.99;74.52;98854.52;1739161;82;23536;-39
2020/12/31 10:14:32;;;;;;;15.80;9.53;;;;;;;9.06;74.51;98854.05;1729502;82;21041;-39
2020/12/31 10:17:00;;;;;;;16.45;10.38;;;;;;;9.16;74.25;98845.90;1737017;81;21619;-38
2020/12/31 10:19:29;;;;;;;12.65;9.78;;;;;;;9.18;74.19;98850.95;1729492;82;21063;-39
2020/12/31 10:21:57;;;;;;;13.03;9.68;;;;;;;9.15;74.20;98846.47;1743209;82;21004;-40
2020/12/31 10:24:25;;;;;;;12.58;8.43;;;;;;;9.12;74.11;98844.50;1744845;81;21349;-40
2020/12/31 10:26:54;;;;;;;14.60;9.03;;;;;;;9.12;74.34;98841.01;1765534;81;21548;-40
2020/12/31 10:29:22;;;;;;;12.07;8.65;;;;;;;9.22;74.31;98842.32;1769953;81;22042;-40
2020/12/31 10:31:53;;;;;;;15.35;9.53;;;;;;;9.25;74.03;98839.66;1768074;81;21173;-40
2020/12/31 10:34:22;;;;;;;16.62;10.85;;;;;;;9.22;73.93;98835.56;1724350;82;21123;-40
2020/12/31 10:37:17;;;;;;;13.48;9.33;;;;;;;9.20;73.99;98843.27;1732783;82;21220;-40
2020/12/31 10:39:46;;;;;;;14.80;9.28;;;;;;;9.15;74.21;98839.70;1690334;83;21170;-40
2020/12/31 10:42:16;;;;;;;12.93;8.63;;;;;;;9.14;74.30;98835.47;1713629;83;21147;-40
2020/12/31 10:44:45;;;;;;;16.32;9.20;;;;;;;9.16;74.06;98841.27;1749053;81;21145;-40
2020/12/31 10:47:13;;;;;;;14.55;9.33;;;;;;;9.14;74.05;98831.41;1732817;82;21109;-40
2020/12/31 10:49:42;;;;;;;13.83;9.45;;;;;;;9.11;74.24;98826.70;1733248;82;21175;-40
2020/12/31 10:52:12;;;;;;;13.28;8.60;;;;;;;9.10;74.33;98825.13;1732800;82;21168;-40
2020/12/31 10:54:40;;;;;;;15.03;9.05;;;;;;;9.12;74.41;98822.86;1720603;82;21044;-40
2020/12/31 10:57:10;;;;;;;13.85;8.95;;;;;;;9.20;74.37;98829.15;1728936;82;21194;-40
2020/12/31 10:59:38;;;;;;;16.10;9.88;;;;;;;9.25;74.35;98826.14;1761324;80;21197;-40
2020/12/31 11:02:06;;;;;;;14.85;9.23;;;;;;;9.24;74.41;98832.72;1750473;80;21195;-40
2020/12/31 11:04:35;;;;;;;15.55;9.48;;;;;;;9.22;74.51;98834.20;1724040;81;21150;-40
2020/12/31 11:07:03;;;;;;;15.18;10.08;;;;;;;9.20;74.65;98825.09;1737842;81;21155;-40
2020/12/31 11:09:31;;;;;;;11.20;8.70;;;;;;;9.26;74.66;98822.30;1702316;83;21038;-40
2020/12/31 11:12:04;;;;;;;15.50;9.85;;;;;;;9.35;74.57;98815.27;1776149;79;21087;-40
2020/12/31 11:14:32;;;;;;;16.32;10.58;;;;;;;9.35;74.58;98820.11;1776749;79;21290;-40
2020/12/31 11:17:00;;;;;;;15.38;9.35;;;;;;;9.32;74.64;98818.15;1784422;79;21127;-40
2020/12/31 11:19:29;;;;;;;14.78;8.85;;;;;;;9.31;74.78;98817.15;1776566;79;21056;-40
2020/12/31 11:21:58;;;;;;;14.70;8.48;;;;;;;9.34;74.84;98811.81;1785836;79;21138;-40
2020/12/31 11:24:26;;;;;;;16.65;9.85;;;;;;;9.42;74.82;98810.77;1805077;79;21039;-40
2020/12/31 11:26:55;;;;;;;16.05;10.13;;;;;;;9.47;74.84;98811.02;1804783;79;21434;-40
2020/12/31 11:29:24;;;;;;;14.03;10.43;;;;;;;9.50;74.99;98811.63;1780454;79;20976;-40
2020/12/31 11:31:52;;;;;;;17.95;10.38;;;;;;;9.48;75.13;98805.83;1776096;79;21441;-39
2020/12/31 11:34:24;;;;;;;;;;;;;;;9.49;75.28;98811.42;1775083;79;21202;-39
2020/12/31 11:36:52;;;;;;;14.95;9.30;;;;;;;9.57;75.21;98811.75;1773428;79;20322;-39
2020/12/31 11:39:21;;;;;;;16.45;10.03;;;;;;;9.56;75.23;98812.31;1798192;79;21327;-39
2020/12/31 11:41:49;;;;;;;14.63;9.95;;;;;;;9.55;75.27;98809.97;1804848;79;21541;-39
2020/12/31 11:44:17;;;;;;;16.85;9.60;;;;;;;9.51;75.35;98806.44;1767708;79;21103;-39
2020/12/31 11:46:48;;;;;;;14.05;8.20;;;;;;;9.47;75.31;98802.91;1802697;79;21874;-39
2020/12/31 11:49:17;;;;;;;13.90;8.35;;;;;;;9.47;75.39;98802.91;1774940;79;21381;-39
2020/12/31 11:51:46;;;;;;;15.23;8.83;;;;;;;9.51;75.39;98800.45;1787497;79;22334;-39
2020/12/31 11:54:15;;;;;;;14.40;9.00;;;;;;;9.54;75.47;98792.16;1726596;82;21152;-39
2020/12/31 11:56:45;;;;;;;15.00;9.55;;;;;;;9.58;75.53;98790.31;1716167;82;21131;-39